Accueil
METAR-TAF:

METAR-TAF

Aéroports :

Aéroport de Kuujjuarapik

Kuujjuarapik, Québec, Canada

latitude: 55-17N, longitude: 077-46W, altitude: 21 m

Observation

Le bulletin a été fait il y a 40 minutes, à 06:00 UTC
Vent 5 kt de sud
Température -28°C
Humidité 68%
Pression 1016 hPa
Visibilité: 14.5 km
Ciel clair

METAR: CYGW 170600Z AUTO 18005KT 9SM CLR M28/M32 A3000 RMK SLP162

Heure: 01:40 (06:40 UTC)

Prévision

Le bulletin a été fait il y a 1 heure et 2 minutes, à 05:38 UTC
Prévision valable du 17 à 06 UTC au 17 à 18 UTC
Vent 8 kt de sud/sud-ouest
Visibilité: 10 km
Ciel clair
Evoluant progressivement
du 17 à 10 UTC au 17 à 12 UTC
Vent 12 kt de sud-ouest avec des rafales jusqu'à 22 kt

TAF: CYGW 170538Z 1706/1718 20008KT P6SM SKC BECMG 1710/1712 22012G22KT RMK FCST BASED ON AUTO OBS. NXT FCST BY 171200Z

Observations et prévisions météorologiques de plus de 4000 aéroports (messages METAR et TAF).

Les stations disponibles sont représentées par des disques jaunes et rouges sur la carte.

Passer la souris dessus pour voir le nom de la station.

Cliquer dessus pour voir les observations et prévisions météorologiques.

Pour changer de carte: cliquez sur les boutons verts avec une croix noire pour zoomer, sur le bouton vert avec un tiret pour effectuer un zoom arrière, ou sur les flèches vertes pour les cartes adjacentes.


METAR-TAF: